Time;durP1;ratioP1;P1;durP2;ratioP2;P2;SDS_P1;SDS_P2;PMS_P1;PMS_P2;Temp;Humidity;BMP_temperature;BMP_pressure;BME280_temperature;BME280_humidity;BME280_pressure;Samples;Min_cycle;Max_cycle;Signal;HPM_P1;HPM_P2
2023/09/20 00:01:36;;;;;;;4.20;1.90;;;;;15.40;96977.00;;;;5034158;28;20232;-71
2023/09/20 00:04:26;;;;;;;5.80;2.00;;;;;15.30;96987.00;;;;5034509;28;20674;-71
2023/09/20 00:07:15;;;;;;;1.80;1.70;;;;;15.20;96979.00;;;;5035836;28;20237;-71
2023/09/20 00:10:04;;;;;;;2.30;2.10;;;;;15.20;96979.00;;;;5035325;28;20213;-71
2023/09/20 00:12:54;;;;;;;3.67;1.67;;;;;15.20;96979.00;;;;5033839;28;20205;-71
2023/09/20 00:15:43;;;;;;;1.57;1.43;;;;;15.00;96982.00;;;;5039028;28;20565;-71
2023/09/20 00:18:32;;;;;;;5.27;1.73;;;;;15.10;96982.00;;;;5034828;28;20224;-70
2023/09/20 00:21:23;;;;;;;3.93;1.60;;;;;14.80;96989.00;;;;5033762;28;20228;-72
2023/09/20 00:24:12;;;;;;;5.17;2.10;;;;;14.80;96983.00;;;;5032853;28;20201;-71
2023/09/20 00:27:02;;;;;;;3.70;2.00;;;;;14.90;96982.00;;;;5034855;28;20221;-71
2023/09/20 00:29:52;;;;;;;2.47;1.80;;;;;14.70;96975.00;;;;5033409;28;20212;-72
2023/09/20 00:32:42;;;;;;;7.20;2.60;;;;;14.70;96979.00;;;;5031320;28;20213;-72
2023/09/20 00:35:31;;;;;;;2.10;1.57;;;;;15.20;96970.00;;;;5034627;28;20197;-73
2023/09/20 00:38:20;;;;;;;3.67;1.80;;;;;15.50;96970.00;;;;5035379;28;20604;-70
2023/09/20 00:41:09;;;;;;;2.23;1.87;;;;;15.30;96980.00;;;;5034428;28;20255;-72
2023/09/20 00:44:00;;;;;;;2.67;1.87;;;;;15.00;96972.00;;;;5033289;28;20216;-71
2023/09/20 00:46:50;;;;;;;1.80;1.53;;;;;15.10;96975.00;;;;5036738;28;20205;-70
2023/09/20 00:49:40;;;;;;;12.73;2.13;;;;;14.80;96978.00;;;;5034317;28;20209;-70
2023/09/20 00:52:29;;;;;;;3.77;2.03;;;;;14.80;96987.00;;;;5035526;28;20209;-71
2023/09/20 00:55:21;;;;;;;1.67;1.57;;;;;14.70;96981.00;;;;5035554;28;20212;-72
2023/09/20 00:58:14;;;;;;;3.60;2.10;;;;;14.90;96981.00;;;;5032979;28;20221;-71
2023/09/20 01:01:03;;;;;;;2.57;1.67;;;;;14.90;96975.00;;;;5032516;28;20232;-71
2023/09/20 01:03:55;;;;;;;3.83;1.80;;;;;14.80;96986.00;;;;5032825;28;20213;-71
2023/09/20 01:06:46;;;;;;;3.03;1.83;;;;;14.60;96983.00;;;;5039898;28;20208;-72
2023/09/20 01:09:36;;;;;;;1.97;1.70;;;;;14.30;96977.00;;;;5036866;28;20689;-70
2023/09/20 01:12:26;;;;;;;5.70;2.20;;;;;14.20;96976.00;;;;5037671;28;20212;-71
2023/09/20 01:15:15;;;;;;;4.53;1.70;;;;;14.50;96975.00;;;;5033649;28;20216;-70
2023/09/20 01:18:05;;;;;;;2.47;1.70;;;;;14.90;96979.00;;;;5034860;28;20240;-70
2023/09/20 01:20:55;;;;;;;3.53;2.07;;;;;15.00;96968.00;;;;5030988;28;20671;-70
2023/09/20 01:23:46;;;;;;;2.37;2.00;;;;;15.20;96972.00;;;;5032845;28;20289;-72
2023/09/20 01:26:38;;;;;;;6.47;1.70;;;;;14.80;96979.00;;;;5037751;28;20599;-71
2023/09/20 01:29:27;;;;;;;3.97;1.87;;;;;14.70;96964.00;;;;5034712;28;20208;-71
2023/09/20 01:32:16;;;;;;;5.80;2.20;;;;;14.60;96975.00;;;;5032848;28;20681;-70
2023/09/20 01:35:06;;;;;;;2.60;2.13;;;;;15.00;96981.00;;;;5028887;28;20224;-70
2023/09/20 01:37:55;;;;;;;3.07;1.87;;;;;14.90;96975.00;;;;5035313;28;20233;-70
2023/09/20 01:40:46;;;;;;;2.30;1.80;;;;;14.80;96974.00;;;;5033665;28;20221;-70
2023/09/20 01:43:37;;;;;;;3.87;1.60;;;;;14.40;96972.00;;;;5036177;28;20250;-70
2023/09/20 01:46:26;;;;;;;3.87;2.47;;;;;14.70;96983.00;;;;5034015;28;20212;-70
2023/09/20 01:49:16;;;;;;;4.13;1.80;;;;;14.90;96992.00;;;;5057576;23;20238;-88
2023/09/20 01:52:07;;;;;;;3.20;1.60;;;;;14.90;96980.00;;;;5051296;28;20232;-88
2023/09/20 01:54:57;;;;;;;2.37;1.80;;;;;15.10;96981.00;;;;5041018;28;20208;-87
2023/09/20 01:57:48;;;;;;;3.10;1.90;;;;;15.10;96986.00;;;;5032346;28;20202;-87
2023/09/20 02:00:40;;;;;;;5.33;2.00;;;;;15.20;96986.00;;;;5033454;28;20210;-87
2023/09/20 02:03:31;;;;;;;4.20;2.10;;;;;15.00;96984.00;;;;5034242;28;20584;-87
2023/09/20 02:06:21;;;;;;;3.67;1.90;;;;;14.70;96986.00;;;;5029632;28;20211;-87
2023/09/20 02:09:12;;;;;;;3.07;2.13;;;;;14.60;96987.00;;;;5036366;28;20801;-87
2023/09/20 02:12:01;;;;;;;4.67;1.37;;;;;14.30;96978.00;;;;5038043;28;20225;-87
2023/09/20 02:14:51;;;;;;;3.90;1.73;;;;;14.20;96986.00;;;;5042334;28;20204;-86
2023/09/20 02:17:40;;;;;;;6.77;1.80;;;;;14.00;96992.00;;;;5039725;28;20232;-88
2023/09/20 02:20:34;;;;;;;2.17;1.83;;;;;14.30;96998.00;;;;5039328;28;20236;-87
2023/09/20 02:23:23;;;;;;;3.20;1.97;;;;;14.50;96988.00;;;;5033091;28;20236;-86
2023/09/20 02:26:12;;;;;;;2.90;1.90;;;;;14.00;96980.00;;;;5038095;28;20670;-87
2023/09/20 02:29:03;;;;;;;3.07;1.60;;;;;14.10;96987.00;;;;5035831;28;20259;-87
2023/09/20 02:31:54;;;;;;;5.03;2.27;;;;;14.50;96980.00;;;;5032032;28;20677;-86
2023/09/20 02:34:43;;;;;;;3.03;1.60;;;;;14.70;96969.00;;;;5036715;28;20430;-86
2023/09/20 02:37:33;;;;;;;5.83;2.17;;;;;14.30;96956.00;;;;5035999;28;20212;-86
2023/09/20 02:40:23;;;;;;;2.23;1.80;;;;;13.80;96958.00;;;;5043293;28;20592;-87
2023/09/20 02:43:13;;;;;;;1.90;1.60;;;;;14.00;96970.00;;;;5036962;28;20241;-86
2023/09/20 02:46:05;;;;;;;4.37;2.27;;;;;14.00;96960.00;;;;5034890;28;20227;-86
2023/09/20 02:48:55;;;;;;;8.80;2.10;;;;;13.80;96959.00;;;;5040640;28;20217;-85
2023/09/20 02:51:45;;;;;;;2.03;1.83;;;;;14.30;96970.00;;;;5035235;28;20364;-85
2023/09/20 02:54:34;;;;;;;1.90;1.70;;;;;14.50;96965.00;;;;5034401;28;20209;-85
2023/09/20 02:57:23;;;;;;;3.80;1.93;;;;;14.80;96964.00;;;;5033210;28;20678;-85
2023/09/20 03:00:15;;;;;;;8.53;3.03;;;;;14.70;96969.00;;;;5033363;28;20217;-86
2023/09/20 03:03:07;;;;;;;3.97;2.10;;;;;14.40;96971.00;;;;5032680;28;20773;-85
2023/09/20 03:05:57;;;;;;;9.63;1.90;;;;;14.40;96968.00;;;;5031455;28;20674;-86
2023/09/20 03:08:46;;;;;;;4.40;1.73;;;;;14.20;96972.00;;;;5035454;28;20208;-86
2023/09/20 03:11:37;;;;;;;2.57;1.80;;;;;13.90;96965.00;;;;5034453;28;20209;-85
2023/09/20 03:14:26;;;;;;;3.30;2.00;;;;;13.70;96958.00;;;;5032873;28;20205;-86
2023/09/20 03:17:18;;;;;;;1.67;1.50;;;;;13.70;96961.00;;;;5034086;28;20209;-86
2023/09/20 03:20:16;;;;;;;2.17;1.97;;;;;13.90;96966.00;;;;5035242;28;20205;-87
2023/09/20 03:23:07;;;;;;;2.70;2.00;;;;;14.00;96962.00;;;;5037337;28;20229;-87
2023/09/20 03:25:56;;;;;;;5.77;2.10;;;;;13.90;96957.00;;;;5040319;28;20212;-87
2023/09/20 03:28:48;;;;;;;2.40;1.93;;;;;13.60;96962.00;;;;5039798;28;20212;-86
2023/09/20 03:31:38;;;;;;;3.37;1.90;;;;;13.50;96954.00;;;;5035505;28;20745;-86
2023/09/20 03:34:28;;;;;;;2.73;1.63;;;;;13.20;96959.00;;;;5039859;28;20205;-86
2023/09/20 03:37:18;;;;;;;4.20;2.00;;;;;13.10;96956.00;;;;5039420;28;20216;-86
2023/09/20 03:40:10;;;;;;;2.13;1.40;;;;;13.10;96953.00;;;;5044611;28;20208;-88
2023/09/20 03:43:02;;;;;;;1.60;1.50;;;;;13.50;96960.00;;;;5049284;28;20228;-87
2023/09/20 03:45:53;;;;;;;2.20;2.00;;;;;13.90;96955.00;;;;5051429;28;20200;-87
2023/09/20 03:48:42;;;;;;;4.23;2.30;;;;;13.90;96950.00;;;;5042979;28;20213;-87
2023/09/20 03:51:31;;;;;;;5.53;2.40;;;;;14.10;96967.00;;;;5038648;28;20212;-86
2023/09/20 03:54:20;;;;;;;2.47;1.67;;;;;14.00;96958.00;;;;5050925;28;20208;-87
2023/09/20 03:57:11;;;;;;;1.90;1.67;;;;;13.50;96961.00;;;;5040663;28;20356;-88
2023/09/20 04:00:06;;;;;;;1.73;1.63;;;;;13.40;96967.00;;;;5045938;28;20225;-87
2023/09/20 04:02:56;;;;;;;4.13;2.10;;;;;13.70;96972.00;;;;5047835;28;20229;-86
2023/09/20 04:05:47;;;;;;;2.57;2.00;;;;;13.90;96965.00;;;;5038060;28;20291;-86
2023/09/20 04:08:36;;;;;;;4.03;2.37;;;;;14.20;96958.00;;;;5039384;28;20209;-87
2023/09/20 04:11:25;;;;;;;7.47;2.70;;;;;14.40;96953.00;;;;5039094;28;20205;-85
2023/09/20 04:14:16;;;;;;;5.77;2.40;;;;;14.40;96952.00;;;;5042528;28;20205;-87
2023/09/20 04:17:05;;;;;;;4.23;2.50;;;;;13.80;96948.00;;;;5040539;28;20286;-87
2023/09/20 04:19:55;;;;;;;5.73;2.50;;;;;13.60;96952.00;;;;5041517;28;20204;-86
2023/09/20 04:22:45;;;;;;;4.47;1.83;;;;;13.70;96951.00;;;;5046616;28;20228;-87
2023/09/20 04:25:34;;;;;;;2.23;1.93;;;;;13.20;96960.00;;;;5050855;28;20201;-88
2023/09/20 04:28:23;;;;;;;2.23;1.90;;;;;13.10;96956.00;;;;5040713;28;20204;-88
2023/09/20 04:31:14;;;;;;;2.10;1.73;;;;;13.60;96963.00;;;;5038533;28;20670;-87
2023/09/20 04:34:05;;;;;;;3.83;2.13;;;;;13.50;96957.00;;;;5038718;28;20217;-88
2023/09/20 04:36:54;;;;;;;6.10;1.87;;;;;13.20;96955.00;;;;5053575;28;20201;-85
2023/09/20 04:39:43;;;;;;;3.20;2.23;;;;;13.20;96957.00;;;;5041475;28;20494;-88
2023/09/20 04:42:33;;;;;;;4.40;1.90;;;;;13.20;96966.00;;;;5041892;28;20698;-90
2023/09/20 04:45:22;;;;;;;4.07;2.27;;;;;13.30;96965.00;;;;5039250;28;20213;-87
2023/09/20 04:48:13;;;;;;;2.80;2.20;;;;;13.70;96954.00;;;;5041796;28;20252;-88
2023/09/20 04:51:02;;;;;;;4.60;2.70;;;;;13.90;96955.00;;;;5033727;28;20216;-88
2023/09/20 04:53:51;;;;;;;2.87;2.30;;;;;14.00;96962.00;;;;5041993;28;20234;-86
2023/09/20 04:56:47;;;;;;;3.97;2.27;;;;;13.50;96953.00;;;;5036695;28;20784;-85
2023/09/20 04:59:37;;;;;;;2.30;2.07;;;;;13.00;96959.00;;;;5036322;28;20212;-89
2023/09/20 05:02:29;;;;;;;3.30;1.97;;;;;13.20;96954.00;;;;5037484;28;20233;-88
2023/09/20 05:05:23;;;;;;;2.40;1.73;;;;;13.20;96953.00;;;;5035102;28;20685;-87
2023/09/20 05:08:15;;;;;;;3.70;1.93;;;;;13.10;96960.00;;;;5038629;28;20690;-87
2023/09/20 05:11:04;;;;;;;2.60;2.07;;;;;13.00;96963.00;;;;5047168;28;20208;-87
2023/09/20 05:13:53;;;;;;;4.23;2.30;;;;;13.20;96959.00;;;;5035451;28;20229;-86
2023/09/20 05:16:42;;;;;;;3.93;2.20;;;;;13.30;96952.00;;;;5034753;28;20212;-87
2023/09/20 05:19:31;;;;;;;3.67;2.53;;;;;13.30;96946.00;;;;5037672;28;20208;-87
2023/09/20 05:22:23;;;;;;;4.63;2.60;;;;;13.70;96945.00;;;;5035327;28;20237;-89
2023/09/20 05:25:12;;;;;;;3.87;1.73;;;;;13.50;96943.00;;;;5028630;28;20685;-83
2023/09/20 05:28:01;;;;;;;3.57;2.03;;;;;13.40;96952.00;;;;5042326;28;20205;-86
2023/09/20 05:30:50;;;;;;;4.47;2.80;;;;;13.80;96937.00;;;;5041030;28;20974;-87
2023/09/20 05:33:39;;;;;;;3.97;2.67;;;;;14.30;96952.00;;;;5042304;28;20610;-88
2023/09/20 05:36:29;;;;;;;4.30;2.30;;;;;13.90;96949.00;;;;5038969;28;20686;-86
2023/09/20 05:39:19;;;;;;;2.53;2.10;;;;;13.30;96950.00;;;;5040066;28;20311;-86
2023/09/20 05:42:09;;;;;;;4.40;2.37;;;;;13.60;96943.00;;;;5032186;28;20745;-84
2023/09/20 05:44:58;;;;;;;1.70;1.60;;;;;13.90;96946.00;;;;5036560;28;20204;-88
2023/09/20 05:47:49;;;;;;;3.37;2.10;;;;;13.70;96954.00;;;;5033833;28;20582;-85
2023/09/20 05:50:40;;;;;;;4.50;2.33;;;;;14.00;96960.00;;;;5033633;28;20592;-88
2023/09/20 05:53:29;;;;;;;4.53;2.27;;;;;13.90;96954.00;;;;5034198;28;20299;-86
2023/09/20 05:56:20;;;;;;;3.07;2.33;;;;;13.90;96955.00;;;;5040958;28;20209;-88
2023/09/20 05:59:10;;;;;;;2.30;2.07;;;;;14.20;96960.00;;;;5034973;28;20198;-88
2023/09/20 06:01:59;;;;;;;3.03;2.23;;;;;14.50;96966.00;;;;5034122;28;20216;-87
2023/09/20 06:04:48;;;;;;;3.13;2.03;;;;;14.60;96968.00;;;;5038517;28;20214;-87
2023/09/20 06:07:37;;;;;;;7.27;2.57;;;;;14.90;96963.00;;;;5037784;28;20213;-87
2023/09/20 06:10:26;;;;;;;5.33;2.80;;;;;15.00;96956.00;;;;5032057;28;20201;-87
2023/09/20 06:13:16;;;;;;;3.57;3.27;;;;;15.30;96966.00;;;;5035783;28;20224;-87
2023/09/20 06:16:08;;;;;;;7.40;3.40;;;;;15.50;96968.00;;;;5037073;28;20673;-87
2023/09/20 06:18:58;;;;;;;8.37;4.37;;;;;16.00;96959.00;;;;5032761;28;20262;-87
2023/09/20 06:21:53;;;;;;;8.83;4.97;;;;;16.40;96965.00;;;;5037227;28;20790;-87
2023/09/20 06:24:46;;;;;;;7.73;4.97;;;;;16.40;96949.00;;;;5033239;28;20708;-87
2023/09/20 06:27:35;;;;;;;9.73;3.97;;;;;16.30;96960.00;;;;5038466;28;20220;-87
2023/09/20 06:30:26;;;;;;;6.73;3.70;;;;;16.20;96956.00;;;;5040266;28;20193;-88
2023/09/20 06:33:16;;;;;;;6.63;3.53;;;;;16.10;96958.00;;;;5035280;28;20228;-87
2023/09/20 06:36:05;;;;;;;4.23;3.43;;;;;16.50;96969.00;;;;5036384;28;20210;-87
2023/09/20 06:38:54;;;;;;;7.50;3.23;;;;;16.50;96975.00;;;;5039392;28;20198;-88
2023/09/20 06:41:44;;;;;;;7.90;3.27;;;;;16.60;96977.00;;;;5036605;28;20607;-88
2023/09/20 06:44:35;;;;;;;5.57;4.03;;;;;16.70;96990.00;;;;5039488;28;20231;-87
2023/09/20 06:47:25;;;;;;;12.20;4.63;;;;;17.10;96999.00;;;;5033852;28;20196;-85
2023/09/20 06:50:15;;;;;;;8.67;3.70;;;;;17.40;96986.00;;;;5033819;28;20219;-86
2023/09/20 06:53:04;;;;;;;8.80;4.63;;;;;17.70;96987.00;;;;5036283;28;20225;-87
2023/09/20 06:55:54;;;;;;;10.07;3.30;;;;;18.10;96997.00;;;;5037000;28;20205;-86
2023/09/20 06:58:45;;;;;;;5.40;3.97;;;;;18.30;96996.00;;;;5037151;28;20205;-86
2023/09/20 07:01:34;;;;;;;5.97;4.17;;;;;18.50;96996.00;;;;5034906;28;20204;-86
2023/09/20 07:04:25;;;;;;;6.07;3.63;;;;;18.60;96987.00;;;;5033152;28;20231;-86
2023/09/20 07:07:14;;;;;;;7.07;4.13;;;;;18.80;96984.00;;;;5035622;28;20205;-87
2023/09/20 07:10:05;;;;;;;7.60;4.10;;;;;19.00;96984.00;;;;5037876;28;20197;-87
2023/09/20 07:12:54;;;;;;;7.27;3.47;;;;;19.20;97000.00;;;;5038054;28;20229;-87
2023/09/20 07:15:44;;;;;;;6.37;3.40;;;;;19.30;96997.00;;;;5030651;28;20201;-87
2023/09/20 07:18:33;;;;;;;12.13;3.80;;;;;19.50;96993.00;;;;5037149;28;20197;-86
2023/09/20 07:21:23;;;;;;;6.50;3.63;;;;;19.50;96998.00;;;;5040251;28;20238;-86
2023/09/20 07:24:13;;;;;;;10.13;4.87;;;;;19.70;97003.00;;;;5037852;28;20215;-86
2023/09/20 07:27:03;;;;;;;9.77;4.03;;;;;19.80;96997.00;;;;5032444;28;20201;-85
2023/09/20 07:29:52;;;;;;;4.87;3.40;;;;;20.00;96984.00;;;;5030069;28;20201;-86
2023/09/20 07:32:41;;;;;;;7.73;3.90;;;;;20.00;96982.00;;;;5031346;28;20237;-87
2023/09/20 07:35:37;;;;;;;7.43;3.70;;;;;20.00;96985.00;;;;5030244;28;20663;-88
2023/09/20 07:38:28;;;;;;;4.07;3.23;;;;;20.30;96989.00;;;;5032249;28;20213;-89
2023/09/20 07:41:18;;;;;;;5.90;3.47;;;;;20.30;97006.00;;;;5031248;28;20201;-87
2023/09/20 07:44:08;;;;;;;4.37;3.40;;;;;20.50;97012.00;;;;5033687;28;20221;-87
2023/09/20 07:46:58;;;;;;;5.53;3.23;;;;;20.70;97014.00;;;;5037030;28;20709;-86
2023/09/20 07:49:47;;;;;;;7.77;3.27;;;;;20.80;97006.00;;;;5034646;28;20208;-86
2023/09/20 07:52:36;;;;;;;5.07;3.00;;;;;20.90;97005.00;;;;5029860;28;20225;-85
2023/09/20 07:55:27;;;;;;;8.03;3.23;;;;;20.90;96985.00;;;;5030685;28;20192;-85
2023/09/20 07:58:19;;;;;;;3.60;2.93;;;;;21.20;96988.00;;;;5036416;28;20235;-87
2023/09/20 08:01:18;;;;;;;4.87;3.23;;;;;21.40;96983.00;;;;5036483;28;20200;-87
2023/09/20 08:04:10;;;;;;;4.50;3.00;;;;;21.60;96985.00;;;;5038778;28;20706;-86
2023/09/20 08:07:01;;;;;;;3.40;2.97;;;;;21.80;96987.00;;;;5037086;28;20292;-86
2023/09/20 08:09:50;;;;;;;4.70;2.90;;;;;21.90;96991.00;;;;5036345;28;20206;-87
2023/09/20 08:12:42;;;;;;;5.90;2.80;;;;;22.00;96983.00;;;;5032760;28;20236;-86
2023/09/20 08:15:32;;;;;;;6.50;3.80;;;;;22.20;96989.00;;;;5033860;28;20223;-87
2023/09/20 08:21:29;;;;;;;6.33;3.27;;;;;22.50;96977.00;;;;5042509;28;20694;-87
2023/09/20 09:01:46;;;;;;;7.97;2.47;;;;;24.40;96940.00;;;;5035865;28;20573;-86
2023/09/20 09:04:35;;;;;;;8.53;3.23;;;;;24.50;96946.00;;;;5037203;28;20225;-85
2023/09/20 09:07:24;;;;;;;5.83;2.80;;;;;24.90;96935.00;;;;5036606;28;20212;-86
2023/09/20 09:10:13;;;;;;;5.80;2.90;;;;;25.00;96939.00;;;;5040143;28;20197;-87
2023/09/20 09:13:03;;;;;;;4.00;2.60;;;;;25.10;96936.00;;;;5036172;28;20232;-86
2023/09/20 09:15:52;;;;;;;4.10;2.47;;;;;24.80;96930.00;;;;5036538;28;20208;-86
2023/09/20 09:18:43;;;;;;;2.90;2.27;;;;;24.70;96934.00;;;;5042469;28;20213;-86
2023/09/20 09:21:34;;;;;;;3.57;2.43;;;;;24.90;96929.00;;;;5035609;28;20693;-86
2023/09/20 09:24:23;;;;;;;4.43;2.80;;;;;24.30;96928.00;;;;5040178;28;20248;-86
2023/09/20 09:27:14;;;;;;;4.73;2.77;;;;;25.00;96931.00;;;;5036116;28;20706;-87
2023/09/20 09:30:03;;;;;;;3.67;2.33;;;;;25.70;96929.00;;;;5039752;28;20704;-87
2023/09/20 09:32:52;;;;;;;4.30;2.77;;;;;25.50;96926.00;;;;5035103;28;20725;-87
2023/09/20 09:35:45;;;;;;;4.90;2.07;;;;;25.40;96919.00;;;;5039338;28;20221;-87
2023/09/20 09:38:35;;;;;;;2.40;1.87;;;;;25.90;96926.00;;;;5040798;28;20196;-87
2023/09/20 09:41:25;;;;;;;4.40;1.97;;;;;26.10;96920.00;;;;5042156;28;20227;-87
2023/09/20 09:44:14;;;;;;;4.87;2.20;;;;;26.70;96911.00;;;;5032889;28;20209;-87
2023/09/20 09:47:04;;;;;;;2.80;1.60;;;;;27.00;96910.00;;;;5035189;28;20705;-86
2023/09/20 09:49:55;;;;;;;5.27;1.47;;;;;27.10;96902.00;;;;5038730;28;20201;-86
2023/09/20 09:52:45;;;;;;;2.57;1.80;;;;;27.30;96897.00;;;;5034058;28;20226;-86
2023/09/20 09:55:34;;;;;;;3.20;1.70;;;;;27.00;96893.00;;;;5038645;28;20202;-87
2023/09/20 09:58:23;;;;;;;2.77;2.03;;;;;26.90;96892.00;;;;5043762;28;20600;-87
2023/09/20 10:01:15;;;;;;;2.80;1.67;;;;;27.10;96894.00;;;;5038348;28;20203;-87
2023/09/20 10:04:07;;;;;;;4.17;1.93;;;;;27.80;96895.00;;;;5042899;28;20217;-87
2023/09/20 10:07:05;;;;;;;5.47;2.13;;;;;27.20;96881.00;;;;5045101;28;20216;-87
2023/09/20 10:10:00;;;;;;;2.23;1.53;;;;;27.10;96873.00;;;;5043585;28;20215;-89
2023/09/20 10:12:49;;;;;;;6.30;2.20;;;;;27.70;96882.00;;;;5038001;28;20226;-87
2023/09/20 10:15:38;;;;;;;3.53;1.60;;;;;28.20;96877.00;;;;5033990;28;20605;-87
2023/09/20 10:18:32;;;;;;;2.67;1.80;;;;;28.30;96872.00;;;;5037067;28;20207;-88
2023/09/20 10:21:23;;;;;;;4.33;1.63;;;;;28.60;96885.00;;;;5039042;28;20215;-87
2023/09/20 10:24:17;;;;;;;1.93;1.37;;;;;28.40;96877.00;;;;5035907;28;20208;-86
2023/09/20 10:27:10;;;;;;;1.83;1.60;;;;;29.00;96871.00;;;;5037893;28;20199;-87
2023/09/20 10:30:02;;;;;;;3.10;1.63;;;;;28.80;96873.00;;;;5035855;28;20202;-87
2023/09/20 10:32:54;;;;;;;3.23;1.53;;;;;29.30;96873.00;;;;5035547;28;20217;-87
2023/09/20 10:35:44;;;;;;;3.80;1.80;;;;;28.50;96878.00;;;;5038282;28;20252;-89
2023/09/20 10:38:33;;;;;;;2.33;1.63;;;;;29.30;96865.00;;;;5037053;28;20695;-88
2023/09/20 10:41:40;;;;;;;4.40;1.70;;;;;29.70;96869.00;;;;5035097;28;20199;-89
2023/09/20 10:44:33;;;;;;;5.03;2.53;;;;;29.80;96857.00;;;;5036498;28;20212;-89
2023/09/20 10:47:32;;;;;;;4.10;2.37;;;;;30.00;96852.00;;;;5040959;28;20226;-89
2023/09/20 10:50:48;;;;;;;1.90;1.70;;;;;30.30;96845.00;;;;5036401;28;20202;-89
2023/09/20 10:53:57;;;;;;;2.70;1.57;;;;;30.50;96856.00;;;;5037537;28;20232;-89
2023/09/20 10:57:09;;;;;;;2.63;1.93;;;;;31.00;96851.00;;;;5039799;28;20202;-90
2023/09/20 11:00:01;;;;;;;3.70;1.70;;;;;30.70;96856.00;;;;5042219;28;20220;-89
2023/09/20 11:02:52;;;;;;;3.00;1.90;;;;;30.70;96846.00;;;;5034954;28;20232;-90
2023/09/20 11:05:42;;;;;;;2.70;1.88;;;;;31.20;96859.00;;;;5035716;28;20216;-89
2023/09/20 11:08:31;;;;;;;3.22;2.03;;;;;29.50;96849.00;;;;5040122;28;20209;-87
2023/09/20 11:11:44;;;;;;;5.03;1.63;;;;;30.90;96852.00;;;;5037072;28;20280;-90
2023/09/20 11:14:39;;;;;;;2.35;1.75;;;;;31.20;96855.00;;;;5035531;28;20619;-90
2023/09/20 11:17:44;;;;;;;1.70;1.55;;;;;32.00;96847.00;;;;5038051;28;20197;-90
2023/09/20 11:20:41;;;;;;;5.90;2.22;;;;;31.80;96845.00;;;;5036031;28;20254;-91
2023/09/20 11:23:41;;;;;;;3.60;1.90;;;;;31.80;96830.00;;;;5035327;28;20220;-90
2023/09/20 11:26:34;;;;;;;2.97;1.85;;;;;32.50;96831.00;;;;5032730;28;20545;-91
2023/09/20 11:29:23;;;;;;;2.80;1.85;;;;;33.20;96822.00;;;;5033397;28;20262;-91
2023/09/20 11:32:24;;;;;;;4.55;2.83;;;;;33.60;96811.00;;;;5034368;28;20220;-90
2023/09/20 11:38:10;;;;;;;4.43;1.55;;;;;33.70;96806.00;;;;5101853;27;20632;-66
2023/09/20 11:40:59;;;;;;;3.20;1.42;;;;;33.30;96803.00;;;;5122769;27;21975;-67
2023/09/20 11:43:48;;;;;;;4.35;1.58;;;;;32.40;96803.00;;;;5140576;27;20217;-67
2023/09/20 11:46:38;;;;;;;5.22;2.03;;;;;32.60;96798.00;;;;5136485;27;20565;-67
2023/09/20 11:49:27;;;;;;;5.93;1.40;;;;;31.70;96788.00;;;;5140532;27;20206;-67
2023/09/20 11:52:19;;;;;;;4.20;1.52;;;;;33.30;96797.00;;;;5143090;27;20454;-67
2023/09/20 11:55:13;;;;;;;3.42;1.75;;;;;34.40;96793.00;;;;5129495;27;20198;-67
2023/09/20 11:58:02;;;;;;;3.72;1.75;;;;;35.10;96782.00;;;;5140434;27;20228;-66
2023/09/20 12:00:51;;;;;;;5.85;1.67;;;30.90;90.00;34.60;96782.00;;;;5142447;27;20596;-67
2023/09/20 12:03:40;;;;;;;2.85;1.38;;;31.10;86.80;35.40;96776.00;;;;5117613;28;20653;-67
2023/09/20 12:06:29;;;;;;;1.95;1.52;;;31.40;86.40;35.90;96776.00;;;;5117041;28;20204;-67
2023/09/20 12:09:18;;;;;;;4.38;2.05;;;31.80;85.30;36.10;96765.00;;;;5115490;28;20608;-67
2023/09/20 12:12:10;;;;;;;10.73;4.78;;;32.20;83.40;36.60;96768.00;;;;5120471;28;20190;-67
2023/09/20 12:14:59;;;;;;;12.45;6.03;;;32.60;83.30;36.50;96779.00;;;;5121111;28;20679;-67
2023/09/20 12:17:50;;;;;;;7.57;4.65;;;32.80;80.20;36.70;96772.00;;;;5122352;28;20221;-68
2023/09/20 12:20:39;;;;;;;4.97;2.30;;;33.10;79.50;36.50;96767.00;;;;5121917;28;20659;-67
2023/09/20 12:23:28;;;;;;;2.97;1.90;;;33.30;75.90;37.00;96757.00;;;;5122612;28;20214;-67
2023/09/20 12:26:18;;;;;;;2.83;2.05;;;33.30;76.80;36.50;96759.00;;;;5122139;28;20198;-67
2023/09/20 12:29:09;;;;;;;3.90;1.92;;;33.40;74.00;36.00;96752.00;;;;5120552;28;20566;-68
2023/09/20 12:31:58;;;;;;;12.45;8.38;;;33.30;73.00;37.10;96747.00;;;;5121162;28;20206;-67
2023/09/20 12:34:46;;;;;;;3.70;2.22;;;33.30;75.20;37.20;96748.00;;;;5115879;28;20205;-68
2023/09/20 12:37:35;;;;;;;6.63;2.53;;;33.50;73.60;37.60;96750.00;;;;5117315;28;20311;-67
2023/09/20 12:40:24;;;;;;;4.05;2.10;;;33.80;74.20;38.20;96742.00;;;;5117713;28;20205;-68
2023/09/20 12:43:15;;;;;;;5.22;1.63;;;34.10;73.50;35.90;96735.00;;;;5117642;28;20587;-68
2023/09/20 12:46:07;;;;;;;5.10;2.20;;;33.20;67.80;33.30;96724.00;;;;5112743;28;20729;-67
2023/09/20 12:48:57;;;;;;;2.60;1.63;;;32.80;69.90;33.10;96717.00;;;;5110403;28;20715;-67
2023/09/20 12:51:46;;;;;;;3.90;1.63;;;;;32.80;96727.00;;;;5104967;28;20199;-68
2023/09/20 12:54:35;;;;;;;3.95;1.80;;;;;32.40;96725.00;;;;5106978;28;20194;-68
2023/09/20 12:57:25;;;;;;;6.85;1.90;;;;;32.90;96711.00;;;;5106946;28;20222;-67
2023/09/20 13:00:15;;;;;;;2.55;2.10;;;;;32.70;96720.00;;;;5103477;28;20251;-67
2023/09/20 13:03:10;;;;;;;2.83;1.60;;;;;34.00;96711.00;;;;5104606;28;20242;-67
2023/09/20 13:05:59;;;;;;;3.72;1.60;;;;;35.50;96706.00;;;;5105952;28;20674;-67
2023/09/20 13:08:48;;;;;;;5.07;2.25;;;;;34.70;96701.00;;;;5107479;28;20206;-67
2023/09/20 13:11:39;;;;;;;2.08;1.60;;;;;35.50;96704.00;;;;5105882;28;20198;-68
2023/09/20 13:14:30;;;;;;;4.07;1.95;;;;;36.30;96697.00;;;;5107188;28;20584;-67
2023/09/20 13:17:20;;;;;;;3.40;1.50;;;;;35.50;96695.00;;;;5108538;28;20210;-67
2023/09/20 13:20:13;;;;;;;1.50;1.25;;;;;34.30;96696.00;;;;5102819;28;20199;-67
2023/09/20 13:23:02;;;;;;;5.72;1.80;;;;;35.20;96693.00;;;;5108009;28;20218;-67
2023/09/20 13:25:52;;;;;;;4.60;1.98;;;;;33.90;96690.00;;;;5108235;28;20206;-67
2023/09/20 13:28:42;;;;;;;4.00;1.88;;;;;33.90;96677.00;;;;5107998;28;20209;-67
2023/09/20 13:31:31;;;;;;;8.02;1.77;;;;;34.50;96683.00;;;;5103157;28;20210;-67
2023/09/20 13:34:21;;;;;;;2.47;1.90;;;;;36.20;96680.00;;;;5097175;28;20222;-67
2023/09/20 13:37:12;;;;;;;6.22;2.08;;;;;37.10;96675.00;;;;5096917;28;20241;-67
2023/09/20 13:40:01;;;;;;;3.58;1.60;;;33.00;72.70;36.70;96670.00;;;;5105590;28;20229;-67
2023/09/20 13:42:50;;;;;;;4.82;1.83;;;33.20;73.20;37.10;96669.00;;;;5103346;28;20718;-67
2023/09/20 13:45:41;;;;;;;4.38;1.67;;;33.50;73.00;37.40;96664.00;;;;5104765;28;20201;-67
2023/09/20 13:48:30;;;;;;;3.47;1.88;;;33.80;72.70;37.70;96668.00;;;;5104565;28;20206;-67
2023/09/20 13:51:19;;;;;;;6.15;1.83;;;33.90;72.00;36.90;96667.00;;;;5105976;28;20206;-67
2023/09/20 13:54:10;;;;;;;3.72;2.10;;;34.00;70.20;37.90;96666.00;;;;5092507;28;20228;-67
2023/09/20 13:56:59;;;;;;;4.22;2.35;;;34.20;70.30;38.30;96659.00;;;;5089096;28;20221;-67
2023/09/20 13:59:48;;;;;;;3.35;1.95;;;34.50;69.30;37.90;96664.00;;;;5101565;28;20608;-67
2023/09/20 14:02:40;;;;;;;3.58;1.60;;;34.80;69.30;37.90;96669.00;;;;5104656;28;20223;-67
2023/09/20 14:05:29;;;;;;;4.90;1.90;;;34.70;69.60;34.90;96698.00;;;;5108173;28;20199;-67
2023/09/20 14:08:17;;;;;;;3.17;2.25;;;33.00;68.80;32.70;96670.00;;;;5100096;28;20209;-67
2023/09/20 14:11:12;;;;;;;3.65;1.90;;;;;32.00;96660.00;;;;5100206;28;20199;-67
2023/09/20 14:14:02;;;;;;;4.53;1.67;;;;;31.50;96676.00;;;;5106822;28;20222;-66
2023/09/20 14:16:51;;;;;;;2.38;1.45;;;;;28.30;96677.00;;;;5100553;27;20709;-67
2023/09/20 14:19:41;;;;;;;2.88;1.70;;;;;29.40;96665.00;;;;5105572;28;20206;-67
2023/09/20 14:22:30;;;;;;;5.45;2.40;;;;;30.30;96675.00;;;;5105103;28;20214;-66
2023/09/20 14:25:19;;;;;;;3.45;2.38;;;;;28.40;96687.00;;;;5104422;28;20212;-66
2023/09/20 14:28:10;;;;;;;4.95;2.30;;;;;28.20;96687.00;;;;5098338;28;20193;-66
2023/09/20 14:30:59;;;;;;;4.67;2.20;;;;;27.50;96681.00;;;;5105171;28;20256;-65
2023/09/20 14:33:49;;;;;;;3.03;2.10;;;;;27.30;96687.00;;;;5104183;28;20231;-65
2023/09/20 14:36:39;;;;;;;2.80;1.77;;;;;27.30;96689.00;;;;5103973;28;20700;-66
2023/09/20 14:39:29;;;;;;;6.03;2.10;;;;;27.20;96683.00;;;;5107143;28;20228;-65
2023/09/20 14:42:18;;;;;;;4.27;2.10;;;;;27.30;96681.00;;;;5105857;28;20223;-65
2023/09/20 14:45:11;;;;;;;3.90;2.00;;;;;27.40;96680.00;;;;5102931;28;20201;-66
2023/09/20 14:48:03;;;;;;;2.40;2.07;;;;;27.80;96679.00;;;;5106185;28;20205;-65